Time;durP1;ratioP1;P1;durP2;ratioP2;P2;SDS_P1;SDS_P2;PMS_P1;PMS_P2;Temp;Humidity;BMP_temperature;BMP_pressure;BME280_temperature;BME280_humidity;BME280_pressure;Samples;Min_cycle;Max_cycle;Signal;HPM_P1;HPM_P2
2023/08/22 00:02:27;;;;;;;6.03;3.15;;;;;;;19.67;100.00;101974.31;4979100;28;20100;-86
2023/08/22 00:04:53;;;;;;;4.05;2.72;;;;;;;19.58;100.00;101973.13;4969476;28;20575;-87
2023/08/22 00:07:18;;;;;;;4.20;2.90;;;;;;;19.59;100.00;101954.88;4973116;28;20817;-86
2023/08/22 00:09:44;;;;;;;7.72;3.13;;;;;;;19.58;100.00;101970.31;4966473;28;20523;-86
2023/08/22 00:12:09;;;;;;;7.20;2.83;;;;;;;19.43;100.00;101978.09;4977114;28;20390;-86
2023/08/22 00:14:35;;;;;;;4.97;3.05;;;;;;;19.47;100.00;101976.03;4961069;28;20385;-86
2023/08/22 00:17:00;;;;;;;5.82;3.45;;;;;;;19.59;100.00;101958.53;4963665;28;20530;-85
2023/08/22 00:19:25;;;;;;;6.20;2.97;;;;;;;19.57;100.00;101946.78;4977748;28;20027;-86
2023/08/22 00:21:51;;;;;;;10.02;3.08;;;;;;;19.60;100.00;101945.13;4977892;28;20153;-85
2023/08/22 00:24:16;;;;;;;5.25;2.97;;;;;;;19.56;100.00;101944.34;4982601;28;20129;-85
2023/08/22 00:26:42;;;;;;;4.03;3.03;;;;;;;19.47;100.00;101950.47;4980976;28;20033;-85
2023/08/22 00:29:07;;;;;;;5.22;2.72;;;;;;;19.53;100.00;101956.53;4985287;28;20506;-85
2023/08/22 00:31:33;;;;;;;4.43;2.65;;;;;;;19.54;100.00;101970.31;4976350;28;20037;-85
2023/08/22 00:34:01;;;;;;;7.95;2.85;;;;;;;19.48;100.00;101961.44;4979728;28;20038;-85
2023/08/22 00:36:26;;;;;;;5.13;2.60;;;;;;;19.52;100.00;101964.22;4979320;28;20026;-86
2023/08/22 00:38:52;;;;;;;6.40;3.03;;;;;;;19.52;100.00;101966.28;4978100;28;20027;-86
2023/08/22 00:41:17;;;;;;;6.30;3.03;;;;;;;19.48;100.00;101960.63;4986894;28;20039;-85
2023/08/22 00:43:42;;;;;;;6.00;2.80;;;;;;;19.38;100.00;101962.28;4976326;28;20027;-85
2023/08/22 00:46:08;;;;;;;3.50;2.65;;;;;;;19.47;100.00;101951.28;4981389;28;20053;-87
2023/08/22 00:48:34;;;;;;;7.07;3.13;;;;;;;19.45;100.00;101950.09;4979653;28;20049;-86
2023/08/22 00:51:00;;;;;;;6.05;3.00;;;;;;;19.39;100.00;101940.38;4985005;28;20038;-85
2023/08/22 00:53:26;;;;;;;6.43;3.20;;;;;;;19.29;100.00;101951.38;4982142;28;20022;-85
2023/08/22 00:55:51;;;;;;;8.45;3.38;;;;;;;19.25;100.00;101958.31;4976925;28;20038;-85
2023/08/22 00:58:17;;;;;;;6.57;3.35;;;;;;;19.35;100.00;101945.28;4992711;28;20030;-85
2023/08/22 01:00:42;;;;;;;6.30;3.00;;;;;;;19.40;100.00;101953.38;4976083;28;20034;-85
2023/08/22 01:03:08;;;;;;;5.32;3.15;;;;;;;19.38;100.00;101936.75;4977446;28;20792;-85
2023/08/22 01:05:42;;;;;;;4.40;2.60;;;;;;;19.38;100.00;101927.44;4974727;28;20085;-85
2023/08/22 01:08:14;;;;;;;8.40;3.22;;;;;;;19.36;100.00;101930.66;4977961;28;20055;-84
2023/08/22 01:10:46;;;;;;;5.43;2.97;;;;;;;19.42;100.00;101931.06;4976406;28;20069;-85
2023/08/22 01:13:19;;;;;;;5.53;2.70;;;;;;;19.47;100.00;101948.44;4990759;28;20685;-85
2023/08/22 01:15:47;;;;;;;9.45;3.70;;;;;;;19.43;100.00;101935.50;4961355;28;20837;-85
2023/08/22 01:18:15;;;;;;;3.90;2.72;;;;;;;19.40;100.00;101936.34;4977170;28;20062;-85
2023/08/22 01:20:41;;;;;;;4.80;2.72;;;;;;;19.43;100.00;101935.50;4966714;28;20465;-85
2023/08/22 01:23:06;;;;;;;4.03;2.40;;;;;;;19.42;100.00;101925.38;4989308;28;20030;-85
2023/08/22 01:25:32;;;;;;;5.85;2.30;;;;;;;19.47;100.00;101927.78;4976325;28;20164;-85
2023/08/22 01:28:14;;;;;;;4.88;2.95;;;;;;;19.45;100.00;101918.84;4976747;28;20034;-85
2023/08/22 01:30:47;;;;;;;7.30;2.90;;;;;;;19.44;100.00;101920.09;4972696;28;20057;-85
2023/08/22 01:33:22;;;;;;;5.88;2.50;;;;;;;19.40;100.00;101920.09;4975934;28;20026;-85
2023/08/22 01:35:52;;;;;;;8.00;3.45;;;;;;;19.35;100.00;101912.00;4992675;28;20030;-85
2023/08/22 01:38:20;;;;;;;5.40;2.80;;;;;;;19.31;100.00;101911.22;4977707;28;20113;-86
2023/08/22 01:40:45;;;;;;;4.95;2.25;;;;;;;19.30;100.00;101910.41;4971816;28;20030;-87
2023/08/22 01:43:11;;;;;;;5.07;2.70;;;;;;;19.33;100.00;101914.44;4979352;28;20038;-86
2023/08/22 01:45:37;;;;;;;8.40;2.90;;;;;;;19.39;100.00;101912.00;4971543;28;20038;-86
2023/08/22 01:48:02;;;;;;;5.35;2.95;;;;;;;19.36;100.00;101904.31;4977011;28;20034;-86
2023/08/22 01:50:27;;;;;;;4.55;2.80;;;;;;;19.37;100.00;101908.75;4976503;28;20042;-86
2023/08/22 01:52:53;;;;;;;4.25;2.78;;;;;;;19.30;100.00;101906.78;4976114;28;20031;-86
2023/08/22 01:55:19;;;;;;;7.93;4.15;;;;;;;19.29;100.00;101903.13;4977200;28;20569;-86
2023/08/22 01:57:44;;;;;;;10.95;2.50;;;;;;;19.24;100.00;101906.38;4975372;28;20048;-87
2023/08/22 02:00:10;;;;;;;3.53;3.22;;;;;;;19.24;100.00;101899.91;4977998;28;20026;-87
2023/08/22 02:02:36;;;;;;;5.53;3.38;;;;;;;19.18;100.00;101902.34;4973505;28;20038;-87
2023/08/22 02:05:02;;;;;;;4.13;2.70;;;;;;;19.20;100.00;101896.28;4978534;28;20040;-86
2023/08/22 02:07:27;;;;;;;5.55;3.10;;;;;;;19.07;100.00;101893.91;4971428;28;22408;-86
2023/08/22 02:09:52;;;;;;;7.75;3.00;;;;;;;19.17;100.00;101895.09;4973721;28;20476;-86
2023/08/22 02:12:18;;;;;;;6.78;2.80;;;;;;;19.23;100.00;101906.81;4977375;28;20026;-87
2023/08/22 02:14:43;;;;;;;5.30;2.72;;;;;;;19.20;100.00;101905.59;4978281;28;20137;-87
2023/08/22 02:17:09;;;;;;;6.40;3.58;;;;;;;19.16;100.00;101904.81;4976315;28;20092;-87
2023/08/22 02:19:34;;;;;;;3.97;2.90;;;;;;;19.13;100.00;101905.63;4970500;28;20038;-86
2023/08/22 02:21:59;;;;;;;3.70;2.97;;;;;;;19.16;100.00;101901.16;4976239;28;20402;-87
2023/08/22 02:24:25;;;;;;;9.60;3.30;;;;;;;19.07;100.00;101895.94;4969881;28;20056;-85
2023/08/22 02:26:51;;;;;;;6.32;3.63;;;;;;;19.09;100.00;101884.97;4973717;28;20033;-86
2023/08/22 02:29:16;;;;;;;5.05;3.45;;;;;;;19.02;100.00;101882.19;4973677;28;20035;-86
2023/08/22 02:31:42;;;;;;;4.82;3.20;;;;;;;19.04;100.00;101879.75;4970932;28;20475;-86
2023/08/22 02:34:07;;;;;;;5.53;4.03;;;;;;;19.09;100.00;101882.16;4974614;28;20038;-86
2023/08/22 02:36:33;;;;;;;5.68;3.85;;;;;;;19.03;100.00;101878.91;4974024;28;20498;-86
2023/08/22 02:38:58;;;;;;;6.07;3.13;;;;;;;18.96;100.00;101866.81;4971849;28;20483;-86
2023/08/22 02:41:23;;;;;;;6.03;3.03;;;;;;;18.98;100.00;101870.06;4982420;28;20073;-86
2023/08/22 02:43:49;;;;;;;6.13;3.28;;;;;;;19.00;100.00;101873.28;4976815;28;20051;-86
2023/08/22 02:46:15;;;;;;;5.45;2.50;;;;;;;18.94;100.00;101864.38;4970911;28;20722;-86
2023/08/22 02:48:40;;;;;;;5.78;3.67;;;;;;;18.84;100.00;101863.19;4968444;28;20034;-86
2023/08/22 02:51:05;;;;;;;4.60;2.63;;;;;;;18.86;100.00;101862.78;4976551;28;20903;-86
2023/08/22 02:53:31;;;;;;;5.15;2.92;;;;;;;18.94;100.00;101872.09;4985861;28;20038;-86
2023/08/22 02:55:59;;;;;;;9.68;4.07;;;;;;;18.83;100.00;101864.44;4988454;28;20034;-86
2023/08/22 02:58:25;;;;;;;5.93;3.65;;;;;;;18.81;100.00;101855.53;4985343;28;20097;-86
2023/08/22 03:00:51;;;;;;;7.53;3.50;;;;;;;18.80;100.00;101868.06;4974206;28;20030;-85
2023/08/22 03:03:18;;;;;;;6.80;3.50;;;;;;;18.72;100.00;101872.16;4972679;28;20049;-86
2023/08/22 03:05:44;;;;;;;7.82;3.75;;;;;;;18.78;100.00;101867.69;4970712;28;20049;-86
2023/08/22 03:08:09;;;;;;;6.25;3.47;;;;;;;18.78;100.00;101869.69;4971341;28;20034;-85
2023/08/22 03:10:34;;;;;;;6.40;3.35;;;;;;;18.67;100.00;101864.06;4968288;28;20076;-85
2023/08/22 03:13:00;;;;;;;7.32;3.95;;;;;;;18.58;100.00;101870.16;4971594;28;20424;-85
2023/08/22 03:15:25;;;;;;;8.13;4.20;;;;;;;18.64;100.00;101879.06;4971728;28;20507;-86
2023/08/22 03:17:51;;;;;;;7.13;4.00;;;;;;;18.66;100.00;101876.63;4974932;28;20058;-86
2023/08/22 03:20:16;;;;;;;8.70;3.83;;;;;;;18.67;100.00;101884.69;4972199;28;20038;-86
2023/08/22 03:22:41;;;;;;;8.20;3.70;;;;;;;18.65;100.00;101877.84;4976734;28;20041;-85
2023/08/22 03:25:07;;;;;;;8.18;4.03;;;;;;;18.68;100.00;101879.88;4980257;28;20253;-86
2023/08/22 03:27:33;;;;;;;7.93;3.47;;;;;;;18.62;100.00;101873.00;4971619;28;20041;-86
2023/08/22 03:29:58;;;;;;;6.28;3.13;;;;;;;18.61;100.00;101879.88;4966230;28;20037;-86
2023/08/22 03:32:23;;;;;;;5.85;3.65;;;;;;;18.61;100.00;101871.34;4968571;28;20163;-86
2023/08/22 03:34:49;;;;;;;5.50;3.45;;;;;;;18.60;100.00;101864.09;4975545;28;20034;-86
2023/08/22 03:37:14;;;;;;;7.35;3.15;;;;;;;18.63;100.00;101872.56;4973238;28;20046;-86
2023/08/22 03:39:40;;;;;;;10.95;4.15;;;;;;;18.59;100.00;101871.75;4974774;28;20104;-86
2023/08/22 03:42:05;;;;;;;8.02;4.30;;;;;;;18.51;100.00;101866.53;4970994;28;20038;-86
2023/08/22 03:44:30;;;;;;;4.55;3.33;;;;;;;18.55;100.00;101864.50;4970591;28;20041;-86
2023/08/22 03:46:56;;;;;;;5.30;3.58;;;;;;;18.58;100.00;101869.34;4978252;28;20030;-86
2023/08/22 03:49:21;;;;;;;5.88;3.50;;;;;;;18.62;100.00;101870.16;4974505;28;20045;-86
2023/08/22 03:51:47;;;;;;;8.57;3.90;;;;;;;18.62;100.00;101867.31;4981746;28;20026;-86
2023/08/22 03:54:12;;;;;;;6.88;3.80;;;;;;;18.61;100.00;101862.84;4977610;28;20152;-86
2023/08/22 03:56:37;;;;;;;5.88;3.42;;;;;;;18.58;100.00;101866.53;4976907;28;20157;-86
2023/08/22 03:59:03;;;;;;;4.80;3.30;;;;;;;18.54;100.00;101860.84;4981186;28;20704;-86
2023/08/22 04:01:28;;;;;;;6.65;3.70;;;;;;;18.57;100.00;101859.22;4977386;28;20030;-85
2023/08/22 04:03:54;;;;;;;6.15;3.47;;;;;;;18.56;100.00;101866.91;4979672;28;20117;-85
2023/08/22 04:06:19;;;;;;;7.07;4.03;;;;;;;18.58;100.00;101863.69;4991208;28;20040;-86
2023/08/22 04:08:44;;;;;;;6.70;3.63;;;;;;;18.62;100.00;101870.16;4981019;28;20034;-85
2023/08/22 04:11:10;;;;;;;4.57;3.50;;;;;;;18.67;100.00;101872.56;4974034;28;20031;-86
2023/08/22 04:13:35;;;;;;;6.03;4.03;;;;;;;18.58;100.00;101858.00;4975176;28;20031;-86
2023/08/22 04:16:00;;;;;;;5.93;3.90;;;;;;;18.52;100.00;101857.63;4958563;28;20050;-85
2023/08/22 04:18:26;;;;;;;4.97;3.67;;;;;;;18.56;100.00;101866.13;4973519;28;20395;-86
2023/08/22 04:20:51;;;;;;;7.07;4.38;;;;;;;18.48;100.00;101857.63;4994049;28;20501;-86
2023/08/22 04:23:17;;;;;;;9.25;4.25;;;;;;;18.51;100.00;101846.69;4972541;28;20038;-86
2023/08/22 04:25:42;;;;;;;6.68;3.50;;;;;;;18.52;100.00;101860.44;4973723;28;20546;-86
2023/08/22 04:28:07;;;;;;;8.10;4.50;;;;;;;18.47;100.00;101858.03;4975131;28;20042;-86
2023/08/22 04:30:33;;;;;;;5.97;3.80;;;;;;;18.38;100.00;101843.47;4970195;28;20148;-85
2023/08/22 04:32:58;;;;;;;4.03;2.92;;;;;;;18.44;100.00;101856.81;4970358;28;20615;-86
2023/08/22 04:35:24;;;;;;;5.30;3.38;;;;;;;18.50;100.00;101857.22;4971327;28;20121;-86
2023/08/22 04:37:50;;;;;;;6.00;3.25;;;;;;;18.40;100.00;101858.03;4972567;28;20172;-85
2023/08/22 04:40:15;;;;;;;4.53;3.22;;;;;;;18.38;100.00;101861.28;4966743;28;20033;-86
2023/08/22 04:42:41;;;;;;;6.45;4.35;;;;;;;18.32;100.00;101856.44;4971894;28;20057;-86
2023/08/22 04:45:07;;;;;;;6.15;3.25;;;;;;;18.34;100.00;101854.84;4974999;28;20046;-86
2023/08/22 04:47:32;;;;;;;5.82;3.00;;;;;;;18.33;100.00;101858.88;4974229;28;20025;-86
2023/08/22 04:49:58;;;;;;;4.75;2.70;;;;;;;18.33;100.00;101853.22;4974634;28;20100;-86
2023/08/22 04:52:24;;;;;;;5.47;3.30;;;;;;;18.30;100.00;101859.72;4977958;28;20077;-86
2023/08/22 04:54:49;;;;;;;6.97;3.75;;;;;;;18.33;100.00;101858.06;4975280;28;20483;-86
2023/08/22 04:57:15;;;;;;;6.78;3.00;;;;;;;18.27;100.00;101854.84;4977931;28;20034;-85
2023/08/22 04:59:40;;;;;;;6.43;2.97;;;;;;;18.28;100.00;101857.28;4973523;28;20040;-86
2023/08/22 05:02:05;;;;;;;5.18;3.50;;;;;;;18.23;100.00;101854.84;4974132;28;20125;-86
2023/08/22 05:04:31;;;;;;;4.60;2.83;;;;;;;18.25;100.00;101860.09;4968373;28;20026;-85
2023/08/22 05:06:56;;;;;;;5.57;3.28;;;;;;;18.17;100.00;101853.66;4977650;28;20039;-85
2023/08/22 05:09:21;;;;;;;7.60;2.83;;;;;;;18.19;100.00;101864.56;4973981;28;20119;-86
2023/08/22 05:11:49;;;;;;;8.77;3.17;;;;;;;18.23;100.00;101859.69;4976129;28;20125;-86
2023/08/22 05:14:14;;;;;;;4.30;2.90;;;;;;;18.21;100.00;101859.31;4979089;28;20041;-86
2023/08/22 05:16:42;;;;;;;5.50;3.22;;;;;;;18.25;100.00;101860.91;4975858;28;20137;-86
2023/08/22 05:19:07;;;;;;;6.85;3.47;;;;;;;18.23;100.00;101860.50;4986304;28;20035;-86
2023/08/22 05:21:33;;;;;;;4.80;2.95;;;;;;;18.23;100.00;101863.34;4976083;28;20403;-86
2023/08/22 05:23:58;;;;;;;5.68;3.80;;;;;;;18.28;100.00;101859.31;4977835;28;20414;-86
2023/08/22 05:26:24;;;;;;;7.65;4.53;;;;;;;18.24;100.00;101867.00;4975812;28;20037;-86
2023/08/22 05:28:49;;;;;;;4.95;3.25;;;;;;;18.20;100.00;101857.69;4969080;28;20069;-86
2023/08/22 05:31:28;;;;;;;5.80;3.60;;;;;;;18.21;100.00;101862.94;4968419;28;20040;-86
2023/08/22 05:33:53;;;;;;;6.05;3.38;;;;;;;18.24;100.00;101869.84;4978275;28;20481;-86
2023/08/22 05:36:19;;;;;;;4.75;3.00;;;;;;;18.23;100.00;101866.16;4979603;28;20026;-86
2023/08/22 05:38:44;;;;;;;5.07;2.80;;;;;;;18.29;100.00;101858.06;4979007;28;20026;-86
2023/08/22 05:41:10;;;;;;;7.15;3.60;;;;;;;18.24;100.00;101850.00;4981627;28;20443;-85
2023/08/22 05:43:36;;;;;;;10.55;3.72;;;;;;;18.25;100.00;101860.91;4976725;28;20458;-85
2023/08/22 05:46:02;;;;;;;9.52;3.33;;;;;;;18.32;100.00;101856.44;4978561;28;20045;-85
2023/08/22 05:48:28;;;;;;;7.47;3.80;;;;;;;18.27;100.00;101861.31;4979500;28;20026;-86
2023/08/22 05:50:53;;;;;;;4.95;3.65;;;;;;;18.35;100.00;101861.31;4977280;28;20044;-85
2023/08/22 05:53:19;;;;;;;6.28;3.40;;;;;;;18.33;100.00;101864.53;4974010;28;20113;-85
2023/08/22 05:55:44;;;;;;;9.07;4.47;;;;;;;18.24;100.00;101861.34;4985566;28;20031;-85
2023/08/22 05:58:09;;;;;;;7.65;3.40;;;;;;;18.18;100.00;101860.13;4973596;28;20053;-86
2023/08/22 06:00:35;;;;;;;9.20;3.97;;;;;;;18.26;100.00;101865.38;4976175;28;20044;-85
2023/08/22 06:03:01;;;;;;;7.25;3.78;;;;;;;18.35;100.00;101867.78;4978284;28;20022;-86
2023/08/22 06:05:26;;;;;;;3.22;2.78;;;;;;;19.20;100.00;101871.53;4964173;28;20048;-84
2023/08/22 06:07:53;;;;;;;6.70;2.65;;;;;;;20.30;100.00;101874.78;4986596;28;20034;-84
2023/08/22 06:10:19;;;;;;;6.75;3.42;;;;;;;20.66;100.00;101874.44;4991255;28;20558;-85
2023/08/22 06:12:44;;;;;;;7.88;3.72;;;;;;;21.04;100.00;101887.78;4990170;28;20032;-85
2023/08/22 06:15:09;;;;;;;5.78;2.95;;;;;;;20.64;100.00;101881.75;4977476;28;20042;-84
2023/08/22 06:17:35;;;;;;;9.15;3.45;;;;;;;21.17;100.00;101885.19;4975115;28;20043;-85
2023/08/22 06:20:00;;;;;;;5.60;2.85;;;;;;;21.02;100.00;101874.00;4979278;28;20038;-86
2023/08/22 06:22:26;;;;;;;5.25;3.55;;;;;;;20.76;100.00;101855.59;4971008;28;20027;-82
2023/08/22 06:24:51;;;;;;;7.57;3.10;;;;;;;21.13;100.00;101879.53;4973815;28;20490;-83
2023/08/22 06:27:17;;;;;;;5.78;3.53;;;;;;;21.10;100.00;101874.69;4991850;28;20037;-83
2023/08/22 06:29:42;;;;;;;6.15;4.18;;;;;;;21.02;100.00;101876.84;4974583;28;20054;-83
2023/08/22 06:32:08;;;;;;;9.45;4.07;;;;;;;20.27;100.00;101886.19;4975743;28;20041;-83
2023/08/22 06:34:33;;;;;;;8.40;3.42;;;;;;;20.65;100.00;101880.53;4973599;28;20073;-83
2023/08/22 06:36:59;;;;;;;5.13;2.92;;;;;;;20.51;100.00;101875.78;4975825;28;20084;-82
2023/08/22 06:39:24;;;;;;;5.18;2.75;;;;;;;20.46;100.00;101882.75;4975128;28;21584;-83
2023/08/22 06:41:49;;;;;;;6.03;2.63;;;;;;;20.52;100.00;101875.34;4988419;28;20023;-82
2023/08/22 06:44:15;;;;;;;6.32;2.70;;;;;;;20.79;100.00;101874.69;4978346;28;20030;-82
2023/08/22 06:46:41;;;;;;;6.80;3.15;;;;;;;20.47;100.00;101884.38;4993366;28;20057;-83
2023/08/22 06:49:06;;;;;;;8.68;2.63;;;;;;;21.18;100.00;101892.47;4976545;28;20125;-82
2023/08/22 06:51:32;;;;;;;5.88;2.80;;;;;;;21.52;98.66;101890.41;4979407;28;20038;-82
2023/08/22 06:53:58;;;;;;;6.40;2.90;;;;;;;21.47;98.98;101892.94;4974584;28;20029;-82
2023/08/22 06:56:24;;;;;;;6.38;2.50;;;;;;;21.64;98.19;101886.16;4978721;28;20475;-82
2023/08/22 06:58:49;;;;;;;5.05;2.28;;;;;;;21.83;97.75;101900.91;4972340;28;20125;-82
2023/08/22 07:01:15;;;;;;;4.55;2.53;;;;;;;21.22;98.01;101888.34;4970078;28;20030;-82
2023/08/22 07:03:42;;;;;;;9.23;2.95;;;;;;;21.14;93.84;101891.72;4976357;28;20026;-82
2023/08/22 07:06:07;;;;;;;8.90;2.92;;;;;;;21.63;96.95;101893.09;4968899;28;20141;-82
2023/08/22 07:08:33;;;;;;;7.35;2.58;;;;;;;21.83;96.01;101886.66;4974318;28;20034;-82
2023/08/22 07:11:02;;;;;;;3.67;1.95;;;;;;;21.94;93.91;101890.13;4993788;28;20088;-83
2023/08/22 07:13:28;;;;;;;6.65;2.67;;;;;;;21.52;90.96;101886.72;4972935;28;20184;-83
2023/08/22 07:15:54;;;;;;;4.07;1.80;;;;;;;21.78;91.80;101881.44;4974259;28;20575;-82
2023/08/22 07:18:19;;;;;;;6.28;2.22;;;;;;;20.82;92.44;101876.66;4978077;28;20088;-83
2023/08/22 07:20:46;;;;;;;5.20;3.00;;;;;;;20.96;93.98;101883.44;4978918;28;20085;-88
2023/08/22 07:23:12;;;;;;;4.15;2.35;;;;;;;20.77;96.03;101891.38;4976906;28;20018;-88
2023/08/22 07:25:37;;;;;;;5.05;2.17;;;;;;;19.88;98.10;101884.50;4979211;28;20119;-86
2023/08/22 07:28:03;;;;;;;4.65;2.75;;;;;;;19.76;99.06;101896.38;4980544;28;20057;-86
2023/08/22 07:30:28;;;;;;;4.32;2.08;;;;;;;20.08;99.83;101896.91;4977606;28;20038;-86
2023/08/22 07:32:54;;;;;;;5.28;2.45;;;;;;;20.25;99.23;101883.75;4981414;28;20034;-86
2023/08/22 07:35:23;;;;;;;7.88;2.67;;;;;;;20.15;98.77;101890.34;5002432;28;20038;-86
2023/08/22 07:37:48;;;;;;;4.15;2.67;;;;;;;20.35;97.70;101892.63;4993213;28;20085;-86
2023/08/22 07:40:16;;;;;;;5.03;2.35;;;;;;;20.60;97.13;101901.72;4986490;28;20202;-85
2023/08/22 07:42:42;;;;;;;4.28;2.25;;;;;;;20.64;97.29;101893.13;4990217;28;21474;-86
2023/08/22 07:45:08;;;;;;;5.97;3.10;;;;;;;20.94;93.92;101912.31;4979426;28;20464;-86
2023/08/22 07:47:33;;;;;;;6.68;2.90;;;;;;;20.16;98.39;101913.91;4996409;28;20089;-86
2023/08/22 07:49:58;;;;;;;5.05;2.90;;;;;;;19.81;100.00;101895.94;4981447;28;20217;-86
2023/08/22 07:52:24;;;;;;;5.45;2.90;;;;;;;20.34;99.48;101908.84;4979112;28;20521;-86
2023/08/22 07:54:49;;;;;;;6.47;2.20;;;;;;;20.94;97.58;101903.78;4987175;28;20114;-86
2023/08/22 07:57:15;;;;;;;5.60;3.50;;;;;;;20.44;100.00;101910.00;4996111;28;20031;-86
2023/08/22 07:59:43;;;;;;;4.20;2.50;;;;;;;21.39;98.03;101911.31;4990061;28;20065;-85
2023/08/22 08:02:10;;;;;;;4.55;2.33;;;;;;;21.61;95.32;101909.81;4980114;28;20113;-86
2023/08/22 08:04:35;;;;;;;4.85;2.83;;;;;;;21.20;94.47;101919.28;4984986;28;20037;-86
2023/08/22 08:07:00;;;;;;;8.32;3.70;;;;;;;20.99;96.82;101913.88;4990578;28;20026;-86
2023/08/22 08:09:28;;;;;;;4.60;2.67;;;;;;;21.21;97.10;101932.31;4989871;28;20033;-88
2023/08/22 08:11:54;;;;;;;5.20;2.55;;;;;;;20.94;97.78;101917.19;4986916;28;20479;-86
2023/08/22 08:14:19;;;;;;;4.13;2.45;;;;;;;21.39;94.75;101914.16;4987152;28;20030;-87
2023/08/22 08:16:45;;;;;;;4.80;2.30;;;;;;;21.64;95.35;101937.44;4988431;28;20811;-86
2023/08/22 08:19:31;;;;;;;5.38;2.92;;;;;;;21.68;94.08;101938.19;4983013;28;20035;-88
2023/08/22 08:21:56;;;;;;;9.68;3.83;;;;;;;20.81;96.80;101925.50;4988792;28;20042;-86
2023/08/22 08:24:24;;;;;;;5.35;3.13;;;;;;;20.81;95.98;101926.28;4993381;28;20061;-87
2023/08/22 08:26:50;;;;;;;7.28;2.30;;;;;;;20.75;97.53;101915.81;4990377;28;20635;-86
2023/08/22 08:29:17;;;;;;;9.68;2.95;;;;;;;20.61;98.11;101920.41;4983164;28;20046;-80
2023/08/22 08:31:43;;;;;;;5.70;2.78;;;;;;;20.92;97.70;101926.97;4980767;28;20034;-81
2023/08/22 08:34:08;;;;;;;9.07;4.13;;;;;;;20.87;97.16;101918.91;4992034;28;20043;-80
2023/08/22 08:36:34;;;;;;;8.10;3.50;;;;;;;21.27;95.76;101933.44;4984497;28;20042;-81
2023/08/22 08:38:59;;;;;;;4.93;3.13;;;;;;;21.41;95.75;101925.94;4979442;28;20070;-81
2023/08/22 08:41:25;;;;;;;4.47;3.08;;;;;;;21.36;98.14;101929.28;4981070;28;22780;-81
2023/08/22 08:43:51;;;;;;;5.22;2.90;;;;;;;21.28;96.91;101926.50;4983736;28;20084;-82
2023/08/22 08:46:16;;;;;;;7.90;3.20;;;;;;;21.31;96.80;101928.50;4989196;28;20038;-83
2023/08/22 08:48:44;;;;;;;5.65;3.30;;;;;;;21.45;94.23;101929.56;4983266;28;20030;-83
2023/08/22 08:51:10;;;;;;;5.93;3.03;;;;;;;21.52;94.58;101938.00;4979193;28;20491;-82
2023/08/22 08:53:37;;;;;;;12.65;4.95;;;;;;;21.56;94.65;101937.97;4980469;28;20112;-82
2023/08/22 08:56:04;;;;;;;5.28;2.55;;;;;;;21.44;95.29;101930.78;4983940;28;20391;-82
2023/08/22 08:58:29;;;;;;;5.20;2.83;;;;;;;21.64;92.34;101930.94;4980912;28;20101;-82
2023/08/22 09:00:59;;;;;;;7.10;2.72;;;;;;;21.56;94.30;101940.81;4985067;28;20038;-83
2023/08/22 09:03:24;;;;;;;5.95;3.17;;;;;;;21.54;93.88;101946.94;4989114;28;20062;-82
2023/08/22 09:05:50;;;;;;;9.60;3.63;;;;;;;21.40;92.96;101933.69;4989744;28;20054;-83
2023/08/22 09:08:17;;;;;;;5.35;2.95;;;;;;;21.60;93.27;101930.19;4987959;28;20076;-84
2023/08/22 09:10:51;;;;;;;3.22;2.40;;;;;;;21.97;91.75;101937.75;4987273;28;20073;-84
2023/08/22 09:13:24;;;;;;;6.00;3.38;;;;;;;21.74;92.55;101934.88;5002391;28;20648;-83
2023/08/22 09:15:49;;;;;;;6.50;3.17;;;;;;;21.88;93.28;101931.78;4995382;28;20039;-83
2023/08/22 09:18:14;;;;;;;4.93;2.70;;;;;;;21.84;92.31;101929.00;4984785;28;20035;-83
2023/08/22 09:20:45;;;;;;;3.58;2.05;;;;;;;21.71;91.62;101925.94;4988085;28;20550;-83
2023/08/22 09:23:28;;;;;;;3.67;1.67;;;;;;;22.25;90.80;101924.28;4985523;28;20057;-83
2023/08/22 09:25:54;;;;;;;4.35;2.15;;;;;;;22.25;91.57;101932.84;4976281;28;20858;-83
2023/08/22 09:28:19;;;;;;;7.80;2.45;;;;;;;21.98;87.82;101936.50;4983242;28;20407;-82
2023/08/22 09:30:50;;;;;;;5.13;2.42;;;;;;;21.83;92.52;101930.22;4983049;28;20041;-82
2023/08/22 09:33:16;;;;;;;4.03;2.20;;;;;;;21.90;89.56;101937.84;4984689;28;20042;-82
2023/08/22 09:35:42;;;;;;;11.27;2.15;;;;;;;21.59;92.74;101945.63;4983182;28;20096;-82
2023/08/22 09:38:10;;;;;;;6.00;2.10;;;;;;;21.85;88.82;101941.19;4981142;28;20498;-82
2023/08/22 09:40:48;;;;;;;8.23;1.88;;;;;;;22.14;88.14;101927.28;4983668;28;20034;-82
2023/08/22 09:43:13;;;;;;;5.85;2.95;;;;;;;22.01;89.67;101932.81;4982421;28;20023;-85
2023/08/22 09:45:42;;;;;;;2.90;1.40;;;;;;;21.91;90.26;101934.56;4983155;28;20041;-85
2023/08/22 09:48:14;;;;;;;5.20;3.13;;;;;;;21.65;92.71;101921.97;4980890;28;20033;-85
2023/08/22 09:50:42;;;;;;;8.80;1.80;;;;;;;21.74;93.62;101934.88;4984433;28;20042;-85
2023/08/22 09:53:10;;;;;;;7.75;1.80;;;;;;;21.88;90.58;101946.84;4984641;28;20400;-85
2023/08/22 09:55:37;;;;;;;8.65;2.40;;;;;;;22.24;88.31;101939.75;4981260;28;20034;-85
2023/08/22 09:58:04;;;;;;;6.30;2.20;;;;;;;22.13;88.14;101932.16;4980072;28;20057;-85
2023/08/22 10:00:31;;;;;;;3.83;1.90;;;;;;;22.37;90.12;101935.06;4980566;28;20045;-86
2023/08/22 10:02:57;;;;;;;5.70;2.25;;;;;;;22.57;84.65;101928.59;4984512;28;20049;-86
2023/08/22 10:05:22;;;;;;;2.22;1.75;;;;;;;22.86;87.06;101928.84;4983427;28;20038;-85
2023/08/22 10:07:48;;;;;;;5.97;1.42;;;;;;;22.80;84.84;101931.41;4983580;28;20463;-86
2023/08/22 10:10:15;;;;;;;3.03;1.17;;;;;;;22.51;84.30;101914.81;4977814;28;20027;-86
2023/08/22 10:12:42;;;;;;;3.10;1.63;;;;;;;22.43;81.79;101929.66;4982596;28;20058;-86
2023/08/22 10:15:08;;;;;;;5.65;1.67;;;;;;;22.57;85.25;101940.81;4980180;28;20089;-86
2023/08/22 10:17:34;;;;;;;3.15;1.80;;;;;;;22.85;86.37;101928.06;4981165;28;20133;-86
2023/08/22 10:20:04;;;;;;;5.40;1.77;;;;;;;22.76;82.08;101936.38;5002234;28;20121;-86
2023/08/22 10:22:33;;;;;;;5.93;1.40;;;;;;;22.98;80.82;101944.50;4987830;28;20030;-87
2023/08/22 10:25:08;;;;;;;2.85;1.00;;;;;;;23.03;82.30;101946.88;4987608;28;20093;-87
2023/08/22 10:27:38;;;;;;;3.95;1.20;;;;;;;23.04;81.58;101934.22;4988819;28;20026;-87
2023/08/22 10:30:12;;;;;;;4.43;2.40;;;;;;;23.26;83.98;101948.84;4985383;28;20037;-88
2023/08/22 10:32:37;;;;;;;1.80;1.02;;;;;;;23.33;80.99;101940.91;4989594;28;20113;-87
2023/08/22 10:35:05;;;;;;;2.47;1.25;;;;;;;23.81;78.31;101949.28;4985562;28;20036;-88
2023/08/22 10:37:31;;;;;;;1.55;1.15;;;;;;;23.79;83.21;101943.22;4984079;28;20041;-87
2023/08/22 10:40:06;;;;;;;4.43;1.33;;;;;;;23.64;79.13;101943.50;4990490;28;20038;-87
2023/08/22 10:42:31;;;;;;;3.88;1.60;;;;;;;23.52;75.99;101929.91;4996562;28;20034;-87
2023/08/22 10:44:58;;;;;;;5.15;1.48;;;;;;;23.73;73.27;101949.41;5002828;28;20054;-87
2023/08/22 10:47:30;;;;;;;2.90;1.70;;;;;;;23.63;77.47;101939.03;4988527;28;20031;-88
2023/08/22 10:49:59;;;;;;;;;;;;;;;23.72;75.67;101930.66;4991064;28;20034;-88
2023/08/22 10:52:33;;;;;;;4.68;2.38;;;;;;;23.74;79.69;101913.06;4984638;28;19918;-87
2023/08/22 10:55:08;;;;;;;5.30;2.05;;;;;;;23.41;78.16;101917.91;4987376;28;20030;-87
2023/08/22 10:57:38;;;;;;;5.20;1.58;;;;;;;23.18;83.75;101922.50;4989027;28;20022;-87
2023/08/22 11:00:17;;;;;;;4.30;2.17;;;;;;;23.08;82.64;101943.50;4993025;28;20495;-86
2023/08/22 11:02:43;;;;;;;1.63;1.20;;;;;;;23.22;83.36;101934.66;4995879;28;20088;-86
2023/08/22 11:05:11;;;;;;;6.00;2.78;;;;;;;23.07;85.76;101927.63;4986449;28;20023;-86
2023/08/22 11:07:40;;;;;;;5.43;2.30;;;;;;;22.86;82.02;101935.34;4985434;28;20102;-86
2023/08/22 11:10:07;;;;;;;6.05;2.45;;;;;;;23.11;83.47;101939.78;4989649;28;20509;-87
2023/08/22 11:12:33;;;;;;;4.22;2.20;;;;;;;22.99;88.86;101931.84;4988532;28;20027;-86
2023/08/22 11:14:59;;;;;;;4.13;2.38;;;;;;;22.97;84.04;101918.00;4988624;28;20086;-87
2023/08/22 11:17:25;;;;;;;5.88;2.20;;;;;;;23.07;84.51;101933.34;4984726;28;20523;-87